Tiempo atmosférico en la estación meteorológica de Fuengirola, Málaga (3 m.)

Fecha
DESCASC
Temp. máxima en grados centígrados (hora)
DESCASC
Temp. mínima en grados centígrados (hora)
DESCASC
Temp. media en grados centígrados
DESCASC
Racha de viento máxima en m/sg (hora)
DESCASC
Velocidad máxima media en intervalos de 10 minutos(hora)
DESCASC
Precipitaciones diarias en mm
DESCASC
Precipitaciones de 00:00 a 06:00 en mm
DESCASC
Precipitaciones de 06:00 a 12:00 en mm
DESCASC
Precipitaciones de 12:00 a 18:00 en mm
DESCASC
Precipitaciones de 18:00 a 24:00 en mm
DESCASC
17-08-2017 28.2 (17:50) 23.9 (06:00) 26.1 5 (10:50) 4.17 (16:00) 0 0 0 0 0
16-08-2017 26.2 (20:10) 23.5 (11:30) 24.9 5 (14:20) 3.61 (16:10) 0 0 0 0 0
15-08-2017 26.9 (17:10) 24.2 (00:00) 25.6 5.28 (13:20) 3.89 (13:20) 0 0 0 0 0
14-08-2017 27.6 (15:50) 23.8 (08:10) 25.7 7.5 (13:20) 5 (13:20) 0 0 0 0 0
13-08-2017 27.2 (16:40) 23.3 (00:00) 25.3 5.83 (04:00) 3.61 (23:00) 0 0 0 0 0
12-08-2017 26.9 (16:20) 23.3 (00:00) 25.1 7.5 (23:20) 3.06 (14:10) 0 0 0 0 0
11-08-2017 26.5 (17:30) 23.2 (00:00) 24.9 10.28 (14:00) 4.17 (10:00) 0 0 0 0 0
10-08-2017 26 (15:30) 21.5 (00:00) 23.8 10 (10:00) 6.39 (10:00) 0 0 0 0 0
09-08-2017 29.4 (18:20) 22.7 (00:00) 26.1 9.72 (17:50) 5.28 (14:30) 0 0 0 0 0
08-08-2017 28.9 (18:50) 23.5 (00:00) 26.2 8.06 (13:50) 5.83 (13:50) 0 0 0 0 0
07-08-2017 29.5 (18:10) 25.3 (00:00) 27.4 6.11 (06:00) 4.17 (05:40) 0 0 0 0 0
06-08-2017 28.2 (17:50) 23.6 (00:00) 25.9 3.89 (03:30) 2.5 (03:20) 0 0 0 0 0
05-08-2017 28.8 (17:10) 23.3 (00:00) 26 3.33 (00:50) 1.94 (00:50) 0 0 0 0 0
04-08-2017 27 (16:30) 22.4 (00:00) 24.7 5.28 (12:30) 4.17 (12:30) 0 0 0 0 0
03-08-2017 26.1 (17:50) 21.8 (00:00) 23.9 6.11 (01:40) 4.72 (01:50) 0 0 0 0 0
02-08-2017 29.6 (19:30) 20.5 (00:00) 25.1 8.33 (00:30) 4.72 (00:30) 0 0 0 0 0
01-08-2017 29.7 (20:20) 21.7 (00:00) 25.7 6.67 (14:50) 4.72 (23:10) 0 0 0 0 0
31-07-2017 31.6 (18:40) 21.2 (00:00) 26.4 7.5 (19:10) 4.17 (19:10) 0 0 0 0 0
30-07-2017 29.3 (20:10) 21.2 (00:00) 25.3 7.5 (20:50) 4.44 (17:40) 0 0 0 0 0
29-07-2017 23.8 (18:50) 21.6 (00:00) 22.7 3.89 (01:10) 2.22 (15:50) 0 0 0 0 0
28-07-2017 25.5 (17:50) 20.6 (00:00) 23.1 8.06 (13:30) 5.28 (13:30) 0 0 0 0 0
27-07-2017 24 (02:50) 20.8 (00:00) 22.4 5.56 (09:50) 3.89 (13:00) 0 0 0 0 0
26-07-2017 25.5 (15:30) 22.1 (00:00) 23.8 4.72 (17:00) 3.33 (17:00) 0 0 0 0 0
25-07-2017 26.9 (17:30) 20.8 (00:00) 23.8 7.78 (01:40) 5.28 (01:40) 0 0 0 0 0
24-07-2017 30.9 (18:40) 19.9 (00:00) 25.4 5.83 (19:10) 3.89 (20:00) 0 0 0 0 0
23-07-2017 28.7 (20:00) 19.4 (00:00) 24.1 6.67 (20:20) 4.17 (17:20) 0 0 0 0 0
22-07-2017 28.3 (20:40) 18.3 (00:00) 23.3 7.22 (22:20) 5 (22:20) 0 0 0 0 0
21-07-2017 28.7 (17:50) 20.6 (00:00) 24.7 10 (19:30) 3.89 (19:30) 0 0 0 0 0
20-07-2017 28.8 (19:10) 21.5 (00:00) 25.1 10.83 (12:50) 5 (19:30) 0 0 0 0 0
19-07-2017 30 (19:30) 23.3 (00:00) 26.6 16.11 (18:10) 5.28 (16:20) 0 0 0 0 0

Gráficas

Temp. máximas Temp. mínimas Temp. medias Precipitaciones Rachas de viento máximas Velocidades máximas media en intervalos de 10 minutos

Datos horarios

Fecha y hora oficial Temperatura (ºC) Velocidad del viento (km/h) Dirección del viento Racha (km/h) Dirección de racha Precipitación (mm) Presión (hPa) Tendencia (hPa) Humedad (%)
2017-08-17 23:00:00 25.8 0 Calma 5 Este 0 1016.8 1.2 89
2017-08-17 22:00:00 26.1 2 Sudeste 4 Sudeste 0 1016.2 0.4 88
2017-08-17 21:00:00 26.8 3 Sudeste 4 Sudeste 0 1015.9 0 84
2017-08-17 20:00:00 27.7 2 Sudeste 5 Sur 0 1015.6 -0.7 84
2017-08-17 19:00:00 27.9 4 Sudeste 13 Sudeste 0 1015.8 -0.9 84
2017-08-17 18:00:00 28.1 8 Sudeste 13 Sudeste 0 1015.9 -1.6 85
2017-08-17 17:00:00 28.1 10 Sudeste 18 Sudeste 0 1016.3 -1.7 86
2017-08-17 16:00:00 27.7 15 Sudeste 18 Sudeste 0 1016.7 -1.8 86
2017-08-17 15:00:00 27.7 14 Sudeste 18 Sudeste 0 1017.5 -1.2 87
2017-08-17 14:00:00 27.4 9 Este 17 Sudeste 0 1018 -0.2 89
2017-08-17 13:00:00 27 9 Este 16 Este 0 1018.5 1 89
2017-08-17 12:00:00 26.4 11 Este 17 Este 0 1018.7 1.5 90
2017-08-17 11:00:00 25.9 14 Sudeste 18 Sudeste 0 1018.2 1.5 92
2017-08-17 10:00:00 25.3 5 Este 9 Este 0 1017.5 1.4 93
2017-08-17 09:00:00 24.2 0 Calma 8 Noroeste 0 1017.2 1.3 94
2017-08-17 08:00:00 24 3 Noroeste 6 Noroeste 0 1016.7 1 94
2017-08-17 07:00:00 23.9 4 Noroeste 10 Oeste 0 1016.1 0.2 94
2017-08-17 06:00:00 24 4 Noroeste 7 Oeste 0 1015.9 -0.4 94
2017-08-17 05:00:00 24.4 2 Nordeste 4 Nordeste 0 1015.7 -0.9 95
2017-08-17 04:00:00 24.5 0 Calma 5 Oeste 0 1015.9 -0.8 95
2017-08-17 03:00:00 24.6 2 Oeste 6 Oeste 0 1016.3 -0.5 96
2017-08-17 02:00:00 24.9 4 Nordeste 6 Nordeste 0 1016.6 -0.2 97
2017-08-17 01:00:00 25 3 Este 8 Sudeste 0 1016.7 0.5 96
2017-08-17 00:00:00 25.1 4 Este 6 Este 0 1016.8 1.2 96
2017-08-16 23:00:00 25.2 0 Calma 4 Sur 0 1016.8 1.5 95
2017-08-16 22:00:00 25.4 3 Sur 10 Sur 0 1016.2 0.8 95
2017-08-16 21:00:00 25.8 8 Sur 14 Sur 0 1015.6 -0.1 93
2017-08-16 20:00:00 25.9 6 Sudoeste 13 Sudoeste 0 1015.3 -0.8 94
2017-08-16 19:00:00 25.8 9 Sudoeste 16 Sudoeste 0 1015.4 -1.2 95
2017-08-16 18:00:00 25.6 10 Sudoeste 16 Sudoeste 0 1015.7 -1.3 95
2017-08-16 17:00:00 25.2 12 Sur 17 Sudoeste 0 1016.1 -1.4 96
2017-08-16 16:00:00 25 13 Sur 17 Sudoeste 0 1016.6 -1.2 96
2017-08-16 15:00:00 24.9 12 Sudoeste 18 Sudoeste 0 1017 -1 97
2017-08-16 14:00:00 24 11 Sur 16 Sur 0 1017.5 -0.2 99
2017-08-16 13:00:00 23.6 4 Sudoeste 13 Sur 0 1017.8 0.3 99
2017-08-16 12:00:00 23.6 6 Sur 12 Sur 0 1018 0.7 99
2017-08-16 11:00:00 23.8 4 Sudoeste 14 Sur 0 1017.7 0.9 99
2017-08-16 10:00:00 24.4 8 Sudoeste 14 Sudoeste 0 1017.5 1.1 98
2017-08-16 09:00:00 24.5 0 Calma 5 Oeste 0 1017.3 1.1 92
2017-08-16 08:00:00 24.2 2 Oeste 6 Oeste 0 1016.8 0.5 92
2017-08-16 07:00:00 24.4 4 Oeste 6 Oeste 0 1016.4 0 92
2017-08-16 06:00:00 24.6 3 Noroeste 7 Oeste 0 1016.2 -0.5 93
2017-08-16 05:00:00 24.8 2 Sudoeste 5 Sudoeste 0 1016.3 -1.2 93
2017-08-16 04:00:00 25 0 Calma 9 Noroeste 0 1016.4 -1.4 92
2017-08-16 03:00:00 25.1 5 Oeste 10 Oeste 0 1016.7 -0.7 92
2017-08-16 02:00:00 25.3 3 Oeste 10 Oeste 0 1017.5 0.7 93
2017-08-16 01:00:00 25.5 3 Sudoeste 12 Sur 0 1017.8 1.7 93
2017-08-16 00:00:00 25.8 4 Sudoeste 12 Sudoeste 0 1017.4 1.8 92
2017-08-15 23:00:00 25.9 3 Oeste 11 Sudoeste 0 1016.8 1.5 90
2017-08-15 22:00:00 26 4 Sudoeste 14 Sudoeste 0 1016.1 0.5 91
2017-08-15 21:00:00 26.1 10 Sudoeste 16 Sudoeste 0 1015.6 -0.3 93
2017-08-15 20:00:00 26.1 10 Sudoeste 14 Sur 0 1015.3 -1 92
2017-08-15 19:00:00 26.4 8 Sudoeste 13 Sur 0 1015.6 -0.8 89
2017-08-15 18:00:00 26.6 8 Sur 12 Sudoeste 0 1015.9 -0.7 89
2017-08-15 17:00:00 26.8 5 Sudoeste 12 Sur 0 1016.3 -0.6 87
2017-08-15 16:00:00 26.5 9 Sur 16 Sudoeste 0 1016.4 -0.5 87
2017-08-15 15:00:00 26.2 11 Sudoeste 18 Sudoeste 0 1016.6 0 88
2017-08-15 14:00:00 26.1 12 Sudoeste 19 Sudoeste 0 1016.9 0.7 90
2017-08-15 13:00:00 26 11 Sudoeste 17 Sur 0 1016.9 0.5 89
2017-08-15 12:00:00 26 8 Sur 13 Sur 0 1016.6 0.3 86
2017-08-15 11:00:00 25.9 5 Sudeste 8 Sudeste 0 1016.2 0.5 86
2017-08-15 10:00:00 25.4 3 Este 8 Noroeste 0 1016.4 1.2 88
2017-08-15 09:00:00 24.7 4 Noroeste 9 Noroeste 0 1016.3 1.4 89
2017-08-15 08:00:00 24.4 0 Calma 5 Noroeste 0 1015.7 0.8 89
2017-08-15 07:00:00 24.4 2 Norte 8 Oeste 0 1015.2 0.1 89
2017-08-15 06:00:00 24.7 4 Oeste 8 Oeste 0 1014.9 -0.3 89
2017-08-15 05:00:00 24.8 4 Noroeste 9 Norte 0 1014.9 -1.3 89
2017-08-15 04:00:00 25.2 4 Sur 12 Nordeste 0 1015.1 -1.3 90
2017-08-15 03:00:00 24.9 8 Nordeste 14 Este 0 1015.2 -0.9 90
2017-08-15 02:00:00 25.1 11 Este 18 Este 0 1016.2 0.4 91
2017-08-15 01:00:00 25.2 12 Este 17 Este 0 1016.4 1.6 91
2017-08-15 00:00:00 25.3 12 Este 18 Este 0 1016.1 1.8 91
2017-08-14 23:00:00 25.6 11 Este 17 Este 0 1015.8 2.5 87
2017-08-14 22:00:00 25.7 8 Este 12 Este 0 1014.8 0.8 86
2017-08-14 21:00:00 25.8 3 Nordeste 15 Este 0 1014.3 0.4 83
2017-08-14 20:00:00 26.4 11 Este 15 Este 0 1013.3 -0.8 81
2017-08-14 19:00:00 27.2 8 Sudeste 14 Sudeste 0 1014 -0.5 79
2017-08-14 18:00:00 27.4 11 Sudeste 15 Este 0 1013.9 -1 79
2017-08-14 17:00:00 27.4 9 Este 15 Este 0 1014.1 -1.3 80
2017-08-14 16:00:00 27.3 10 Este 17 Este 0 1014.5 -1.1 81
2017-08-14 15:00:00 27 12 Este 21 Este 0 1014.9 -0.8 81
2017-08-14 14:00:00 26.5 15 Este 27 Este 0 1015.4 0.1 82
2017-08-14 13:00:00 26.2 17 Este 25 Este 0 1015.6 0.6 84
2017-08-14 12:00:00 25.7 15 Este 23 Este 0 1015.7 1 84
2017-08-14 11:00:00 25.2 12 Este 19 Este 0 1015.3 0.8 85
2017-08-14 10:00:00 24.6 11 Este 21 Este 0 1015 0.7 88
2017-08-14 09:00:00 24.1 9 Este 17 Este 0 1014.7 1 89
2017-08-14 08:00:00 23.9 6 Este 11 Sudeste 0 1014.5 0.5 92
2017-08-14 07:00:00 24.3 6 Sur 10 Sudeste 0 1014.3 -0.1 92
2017-08-14 06:00:00 24.5 3 Sudeste 8 Este 0 1013.7 -1.1 91
2017-08-14 05:00:00 24.5 6 Este 13 Sudeste 0 1014 -1.4 90
2017-08-14 04:00:00 24.6 7 Este 14 Este 0 1014.4 -1.5 89
2017-08-14 03:00:00 24.6 10 Este 17 Este 0 1014.8 -0.8 89
2017-08-14 02:00:00 24.8 10 Este 22 Este 0 1015.4 -0.2 89
2017-08-14 01:00:00 25 14 Este 24 Sudeste 0 1015.9 0.7 88
2017-08-14 00:00:00 24.8 9 Este 19 Sudeste 0 1015.6 1.1 87
2017-08-13 23:00:00 25 13 Este 20 Este 0 1015.6 1.3 86
2017-08-13 22:00:00 25.1 5 Este 13 Sudeste 0 1015.2 0.8 84
2017-08-13 21:00:00 25.6 9 Este 17 Sudeste 0 1014.5 -0.2 81
2017-08-13 20:00:00 26.3 8 Este 18 Sudeste 0 1014.3 -0.8 80
2017-08-13 19:00:00 26.8 9 Este 18 Sudeste 0 1014.4 -1.2 79
2017-08-13 18:00:00 27 10 Este 18 Este 0 1014.7 -1.4 78
2017-08-13 17:00:00 27.1 9 Este 15 Este 0 1015.1 -1.2 78
2017-08-13 16:00:00 26.9 10 Este 16 Sudeste 0 1015.6 -1.2 78
2017-08-13 15:00:00 26.7 11 Este 19 Sudeste 0 1016.1 -0.7 78
2017-08-13 14:00:00 25.9 7 Nordeste 11 Nordeste 0 1016.3 -0.6 78
2017-08-13 13:00:00 25.8 5 Este 12 Este 0 1016.8 0.1 78
2017-08-13 12:00:00 25.1 5 Nordeste 11 Nordeste 0 1016.8 0.5 81
2017-08-13 11:00:00 24.8 5 Nordeste 10 Nordeste 0 1016.9 1 83
2017-08-13 10:00:00 24.3 4 Nordeste 8 Nordeste 0 1016.7 1.1 85
2017-08-13 09:00:00 23.8 4 Norte 9 Noroeste 0 1016.3 0.4 86
2017-08-13 08:00:00 23.5 3 Oeste 6 Norte 0 1015.9 -0.4 89
2017-08-13 07:00:00 23.6 4 Norte 9 Este 0 1015.6 -1.3 90
2017-08-13 06:00:00 23.7 4 Este 9 Este 0 1015.9 -1.5 89
2017-08-13 05:00:00 23.7 6 Nordeste 11 Sudeste 0 1016.3 -1.5 91
2017-08-13 04:00:00 23.9 12 Este 21 Sudeste 0 1016.9 -1.2 90
2017-08-13 03:00:00 23.7 4 Este 12 Este 0 1017.4 -0.6 89
2017-08-13 02:00:00 23.9 7 Este 14 Este 0 1017.8 0 89
2017-08-13 01:00:00 23.9 8 Este 13 Este 0 1018.1 0.7 86
2017-08-13 00:00:00 24.1 6 Este 27 Nordeste 0 1018 0.7 84
2017-08-12 23:00:00 24.5 6 Este 12 Este 0 1017.8 0.6 81
2017-08-12 22:00:00 24.6 5 Nordeste 10 Nordeste 0 1017.4 -0.1 80
2017-08-12 21:00:00 25.2 6 Este 13 Este 0 1017.3 -0.8 80
2017-08-12 20:00:00 26 8 Este 16 Este 0 1017.2 -1.4 78
2017-08-12 19:00:00 26.3 8 Este 14 Este 0 1017.5 -1.5 78
2017-08-12 18:00:00 26.5 10 Este 17 Este 0 1018.1 -1.2 78
2017-08-12 17:00:00 26.7 9 Este 16 Este 0 1018.6 -0.9 78
2017-08-12 16:00:00 26.7 10 Este 14 Sudeste 0 1019 -0.5 78
2017-08-12 15:00:00 26.5 8 Este 18 Sudeste 0 1019.3 0 76
2017-08-12 14:00:00 26.2 9 Sudeste 20 Sudeste 0 1019.5 0.4 76
2017-08-12 13:00:00 25.9 7 Este 15 Sudeste 0 1019.5 0.5 77
2017-08-12 12:00:00 25.3 5 Este 12 Este 0 1019.3 0.7 80
2017-08-12 11:00:00 24.9 6 Nordeste 18 Nordeste 0 1019.1 0.8 83
2017-08-12 10:00:00 24.3 6 Este 12 Este 0 1019 1.1 86
2017-08-12 09:00:00 23.8 6 Nordeste 12 Nordeste 0 1018.6 0.9 87
2017-08-12 08:00:00 23.5 6 Este 13 Este 0 1018.3 0.5 87
2017-08-12 07:00:00 23.5 9 Nordeste 14 Nordeste 0 1017.9 0 87
2017-08-12 06:00:00 23.4 5 Nordeste 10 Nordeste 0 1017.7 -0.4 89
2017-08-12 05:00:00 23.5 4 Este 12 Este 0 1017.8 -0.6 89
2017-08-12 04:00:00 23.6 7 Este 13 Nordeste 0 1017.9 -0.3 89
2017-08-12 03:00:00 23.7 7 Nordeste 12 Este 0 1018.1 -0.1 89
2017-08-12 02:00:00 23.7 8 Nordeste 12 Este 0 1018.4 0.1 88
2017-08-12 01:00:00 23.8 7 Este 14 Este 0 1018.2 0.6 86
2017-08-12 00:00:00 23.7 6 Nordeste 14 Este 0 1018.2 1.4 89
2017-08-11 23:00:00 24.2 9 Este 14 Este 0 1018.3 2 88
2017-08-11 22:00:00 24.2 9 Nordeste 14 Este 0 1017.6 1.3 86
2017-08-11 21:00:00 24.8 9 Este 15 Este 0 1016.8 0 85
2017-08-11 20:00:00 25.7 9 Este 14 Este 0 1016.3 -1 82
2017-08-11 19:00:00 25.9 7 Nordeste 11 Nordeste 0 1016.3 -1.5 81
2017-08-11 18:00:00 26.3 10 Sudeste 15 Este 0 1016.8 -1.6 79
2017-08-11 17:00:00 26.4 6 Este 12 Este 0 1017.3 -1.4 81
2017-08-11 16:00:00 25.9 5 Este 14 Nordeste 0 1017.8 -1 83
2017-08-11 15:00:00 25.6 10 Nordeste 17 Nordeste 0 1018.4 -0.7 84
2017-08-11 14:00:00 25.8 9 Este 37 Nordeste 0 1018.7 -0.2 84
2017-08-11 13:00:00 25.3 13 Este 18 Este 0 1018.8 0.2 86
2017-08-11 12:00:00 24.8 10 Este 20 Este 0 1019.1 0.6 89
2017-08-11 11:00:00 24.5 12 Este 22 Este 0 1018.9 0.6 89
2017-08-11 10:00:00 23.9 15 Este 24 Este 0 1018.6 0.4 92
2017-08-11 09:00:00 23.5 10 Nordeste 15 Nordeste 0 1018.5 0.3 95
2017-08-11 08:00:00 23.4 8 Este 14 Este 0 1018.3 -0.1 95
2017-08-11 07:00:00 23.3 6 Este 15 Este 0 1018.2 -0.4 95
2017-08-11 06:00:00 23.4 5 Este 15 Este 0 1018.2 -0.9 95
2017-08-11 05:00:00 23.3 11 Este 18 Este 0 1018.4 -1.3 95
2017-08-11 04:00:00 23.3 12 Este 18 Este 0 1018.6 -1.3 96
2017-08-11 03:00:00 23.2 10 Este 17 Este 0 1019.1 -0.7 96
2017-08-11 02:00:00 23.4 9 Este 15 Este 0 1019.7 0.2 95
2017-08-11 01:00:00 23.4 9 Este 13 Este 0 1019.9 1 95
2017-08-11 00:00:00 23.4 9 Este 16 Este 0 1019.8 1.4 95
2017-08-10 23:00:00 23.7 9 Este 19 Este 0 1019.5 1.3 93
2017-08-10 22:00:00 24 10 Este 18 Nordeste 0 1018.9 0.6 92
2017-08-10 21:00:00 24 8 Nordeste 13 Nordeste 0 1018.4 -0.2 91
2017-08-10 20:00:00 24.9 9 Este 14 Nordeste 0 1018.2 -0.2 89
2017-08-10 19:00:00 25.1 8 Nordeste 14 Este 0 1018.3 -0.4 89
2017-08-10 18:00:00 25.8 9 Este 14 Este 0 1018.6 -0.4 86
2017-08-10 17:00:00 25.8 9 Este 13 Este 0 1018.4 -0.4 88
2017-08-10 16:00:00 25.6 9 Este 16 Sudeste 0 1018.7 0.1 88
2017-08-10 15:00:00 25.8 8 Este 17 Este 0 1019 1.1 89
2017-08-10 14:00:00 25.3 11 Este 27 Este 0 1018.8 1.7 91
2017-08-10 13:00:00 24.6 16 Este 26 Este 0 1018.6 2.3 91
2017-08-10 12:00:00 25.1 15 Este 26 Este 0 1017.9 2.4 89
2017-08-10 11:00:00 24.8 17 Nordeste 35 Este 0 1017.1 2.5 86
2017-08-10 10:00:00 24.6 23 Este 36 Este 0 1016.3 2.4 85
2017-08-10 09:00:00 24.4 17 Este 25 Este 0 1015.5 3.1 84
2017-08-10 08:00:00 22.5 3 Norte 8 Noroeste 0 1014.6 2.8 78
2017-08-10 07:00:00 21.6 7 Este 17 Nordeste 0 1013.9 2.2 86
2017-08-10 06:00:00 22.9 4 Este 15 Este 0 1012.4 0.6 76
2017-08-10 05:00:00 22.4 8 Sudoeste 18 Sur 0 1011.8 -0.3 78
2017-08-10 04:00:00 22.5 8 Sudoeste 18 Sur 0 1011.7 -0.3 80
2017-08-10 03:00:00 22.8 7 Sudoeste 17 Sur 0 1011.8 -0.1 81
2017-08-10 02:00:00 22.6 3 Sur 14 Sudoeste 0 1012.1 0.7 79
2017-08-10 01:00:00 22.7 5 Sudoeste 15 Sudoeste 0 1012 1 83
2017-08-10 00:00:00 23.2 8 Sudoeste 14 Sudoeste 0 1011.9 1.5 78
2017-08-09 23:00:00 24.5 4 Sudoeste 13 Sur 0 1011.4 0.9 69
2017-08-09 22:00:00 25.9 4 Sudoeste 13 Oeste 0 1011 0.2 57
2017-08-09 21:00:00 27.7 6 Oeste 29 Oeste 0 1010.4 -1.1 48
2017-08-09 20:00:00 28.5 8 Oeste 30 Oeste 0 1010.5 -1.2 46
2017-08-09 19:00:00 28.5 7 Oeste 31 Sudoeste 0 1010.8 -1.5 48
2017-08-09 18:00:00 29.2 9 Oeste 35 Oeste 0 1011.5 -1.5 45
2017-08-09 17:00:00 28.7 8 Oeste 27 Sudoeste 0 1011.7 -1.7 50
2017-08-09 16:00:00 27 9 Sudoeste 27 Sudoeste 0 1012.3 -1.4 57
2017-08-09 15:00:00 23.7 18 Sudoeste 30 Sur 0 1013 -0.7 80
2017-08-09 14:00:00 27.1 10 Sudoeste 20 Sur 0 1013.4 -0.3 60
2017-08-09 13:00:00 25.4 12 Sudoeste 21 Sudoeste 0 1013.7 0.3 78
2017-08-09 12:00:00 24.9 8 Sudoeste 13 Sudoeste 0 1013.7 0.7 84
2017-08-09 11:00:00 24.1 8 Sudoeste 13 Sudoeste 0 1013.7 1.1 85
2017-08-09 10:00:00 24.5 4 Sudoeste 8 Sudoeste 0 1013.4 1.3 78
2017-08-09 09:00:00 24 5 Oeste 9 Oeste 0 1013 1.4 66
2017-08-09 08:00:00 23.2 4 Oeste 10 Oeste 0 1012.6 1.5 67
2017-08-09 07:00:00 23.1 3 Sudoeste 14 Este 0 1012.1 1.1 79
2017-08-09 06:00:00 23.8 9 Nordeste 14 Norte 0 1011.6 0.4 81
2017-08-09 05:00:00 24 2 Sudoeste 10 Sur 0 1011.1 -0.1 70
2017-08-09 04:00:00 24.9 3 Oeste 12 Oeste 0 1011 0 67
2017-08-09 03:00:00 25.1 4 Sudoeste 16 Sudoeste 0 1011.2 0.1 69
2017-08-09 02:00:00 24.8 7 Sudoeste 23 Sur 0 1011.2 0.5 74
2017-08-09 01:00:00 27.9 3 Sudoeste 15 Sur 0 1011 0.7 46
2017-08-09 00:00:00 26.8 0 Calma 18 Sudoeste 0 1011.1 1.7 56
2017-08-08 23:00:00 25.7 6 Sudoeste 16 Sudoeste 0 1010.7 1.7 74
2017-08-08 22:00:00 25.2 11 Sudoeste 22 Sudoeste 0 1010.3 1 78
2017-08-08 21:00:00 27.6 4 Sur 15 Nordeste 0 1009.4 -0.1 66
2017-08-08 20:00:00 28.4 8 Nordeste 12 Nordeste 0 1009 -0.7 66
2017-08-08 19:00:00 28.6 7 Sudeste 15 Sudoeste 0 1009.3 -0.7 67
2017-08-08 18:00:00 28.4 9 Sur 23 Sudoeste 0 1009.5 -1 62
2017-08-08 17:00:00 28 12 Sudoeste 25 Sur 0 1009.7 -1.2 66
2017-08-08 16:00:00 26.7 13 Sudoeste 22 Sur 0 1010 -1.2 72
2017-08-08 15:00:00 25.9 9 Sur 23 Sur 0 1010.5 -0.8 74
2017-08-08 14:00:00 25.4 19 Sur 29 Sur 0 1010.9 0 81
2017-08-08 13:00:00 24.7 15 Sudoeste 22 Sudoeste 0 1011.2 0.1 97
2017-08-08 12:00:00 24.9 13 Sudoeste 19 Sudoeste 0 1011.3 0.1 99
2017-08-08 11:00:00 24.6 3 Sur 7 Sudeste 0 1010.9 -0.1 99
2017-08-08 10:00:00 24.2 4 Este 11 Sur 0 1011.1 0.1 99
2017-08-08 09:00:00 23.6 7 Sudoeste 11 Sudoeste 0 1011.2 0.4 99
2017-08-08 08:00:00 24 5 Sudoeste 13 Oeste 0 1011 0.1 99
2017-08-08 07:00:00 24.5 3 Oeste 15 Oeste 0 1011 0 98
2017-08-08 06:00:00 24.8 5 Oeste 15 Oeste 0 1010.8 -0.6 97
2017-08-08 05:00:00 25.6 0 Calma 10 Oeste 0 1010.9 -1 93
2017-08-08 04:00:00 25.4 4 Oeste 7 Oeste 0 1011 -1.4 96
2017-08-08 03:00:00 25.9 4 Norte 7 Nordeste 0 1011.4 -1.2 98
2017-08-08 02:00:00 26.1 5 Nordeste 7 Nordeste 0 1011.9 -0.4 97
2017-08-08 01:00:00 26.3 3 Nordeste 10 Sudoeste 0 1012.4 0.7 97
2017-08-08 00:00:00 26.6 6 Sudoeste 12 Sudoeste 0 1012.6 1.1 96
2017-08-07 23:00:00 27.7 6 Sudoeste 9 Sur 0 1012.3 1 89
2017-08-07 22:00:00 28 3 Sudoeste 12 Oeste 0 1011.7 0 83
2017-08-07 21:00:00 28 3 Oeste 13 Sudoeste 0 1011.5 -0.7 85
2017-08-07 20:00:00 28.1 8 Sudoeste 12 Sudoeste 0 1011.3 -1.5 86
2017-08-07 19:00:00 28.9 4 Sur 14 Sudeste 0 1011.7 -1.7 83
2017-08-07 18:00:00 29.3 4 Sudeste 9 Sudeste 0 1012.2 -1.6 84
2017-08-07 17:00:00 29.1 6 Sudeste 11 Sudeste 0 1012.8 -1.5 84
2017-08-07 16:00:00 28.9 7 Sudeste 13 Sudeste 0 1013.4 -1.4 86
2017-08-07 15:00:00 28.9 7 Sudeste 12 Sudeste 0 1013.8 -0.9 88
2017-08-07 14:00:00 28.5 7 Sudeste 10 Sudeste 0 1014.3 -0.1 90
2017-08-07 13:00:00 27.8 7 Sudeste 10 Sudeste 0 1014.8 0.6 92
2017-08-07 12:00:00 27.9 7 Sudeste 12 Sudeste 0 1014.7 0.4 92
2017-08-07 11:00:00 27.3 7 Sudeste 9 Sudeste 0 1014.4 0.2 92
2017-08-07 10:00:00 26.8 4 Este 7 Este 0 1014.2 0.2 91
2017-08-07 09:00:00 25.9 2 Nordeste 6 Norte 0 1014.3 1.2 91
2017-08-07 08:00:00 25.9 0 Calma 4 Sudeste 0 1014.2 0.1 94
2017-08-07 07:00:00 26.1 2 Sudeste 15 Este 0 1014 -0.9 93
2017-08-07 06:00:00 26.1 14 Este 22 Este 0 1013.1 -1.9 92
2017-08-07 05:00:00 26.2 8 Este 19 Este 0 1014.1 -0.8 92
2017-08-07 04:00:00 25.9 7 Norte 12 Norte 0 1014.9 0.2 95
2017-08-07 03:00:00 26.1 4 Este 19 Sudeste 0 1015 0.4 96
2017-08-07 02:00:00 26 2 Este 6 Nordeste 0 1014.9 0.5 93
2017-08-07 01:00:00 25.9 3 Nordeste 6 Nordeste 0 1014.7 1.1 92
2017-08-07 00:00:00 25.7 4 Este 8 Este 0 1014.6 1.2 90
2017-08-06 23:00:00 25.7 5 Sudeste 11 Sudeste 0 1014.4 0.9 88
2017-08-06 22:00:00 25.7 4 Este 10 Nordeste 0 1013.6 0.2 83
2017-08-06 21:00:00 26.2 5 Nordeste 7 Nordeste 0 1013.4 0.3 94
2017-08-06 20:00:00 26.8 4 Sur 6 Sur 0 1013.5 0.5 91
2017-08-06 19:00:00 27.9 3 Sudeste 9 Sudeste 0 1013.4 -0.1 86
2017-08-06 18:00:00 28.1 6 Sudeste 11 Sudeste 0 1013.1 -0.6 86
2017-08-06 17:00:00 27.8 5 Sudeste 8 Sudeste 0 1013 -0.6 87
2017-08-06 16:00:00 27.5 6 Sudeste 9 Sudeste 0 1013.5 -0.5 88
2017-08-06 15:00:00 27.2 6 Sur 10 Sur 0 1013.7 -0.5 85
2017-08-06 14:00:00 26.9 4 Sudeste 8 Sudeste 0 1013.6 -0.2 79
2017-08-06 13:00:00 26.1 5 Este 8 Este 0 1014 0.4 77
2017-08-06 12:00:00 25.8 5 Sudeste 9 Nordeste 0 1014.2 1.1 84
2017-08-06 11:00:00 25 3 Sur 7 Sudeste 0 1013.8 1.5 83
2017-08-06 10:00:00 24.5 3 Este 7 Sudeste 0 1013.6 1.4 83
2017-08-06 09:00:00 24.5 4 Sur 7 Sur 0 1013.1 1.2 76
2017-08-06 08:00:00 23.8 0 Calma 6 Nordeste 0 1012.3 0.7 80
2017-08-06 07:00:00 24.1 4 Nordeste 10 Nordeste 0 1012.2 0.1 80
2017-08-06 06:00:00 24.5 5 Norte 8 Norte 0 1011.9 0.1 74
2017-08-06 05:00:00 24.7 0 Calma 9 Noroeste 0 1011.6 -0.9 61
2017-08-06 04:00:00 24.9 4 Oeste 14 Oeste 0 1012.1 -0.7 61
2017-08-06 03:00:00 24.5 2 Noroeste 6 Oeste 0 1011.8 -1.1 64
2017-08-06 02:00:00 24.4 0 Calma 6 Nordeste 0 1012.5 -0.2 78
2017-08-06 01:00:00 24.5 3 Nordeste 8 Nordeste 0 1012.8 0.7 80
2017-08-06 00:00:00 24.8 3 Nordeste 6 Nordeste 0 1012.9 0.9 79
2017-08-05 23:00:00 25.6 3 Nordeste 7 Sudoeste 0 1012.7 0.8 78
2017-08-05 22:00:00 26.5 3 Sudoeste 8 Sudoeste 0 1012.1 0.1 73
2017-08-05 21:00:00 26.3 7 Sudoeste 10 Sudoeste 0 1012 -0.2 75
2017-08-05 20:00:00 26.9 6 Sur 8 Sur 0 1011.9 -0.7 72
2017-08-05 19:00:00 26.8 4 Sur 5 Sudoeste 0 1012 -0.9 77
2017-08-05 18:00:00 27.8 4 Sur 5 Sur 0 1012.2 -1.2 77
2017-08-05 17:00:00 28.6 4 Sudeste 7 Sudeste 0 1012.6 -1.3 69
2017-08-05 16:00:00 27.6 4 Sur 5 Sur 0 1012.9 -1.4 67
2017-08-05 15:00:00 28.4 4 Sudeste 8 Sudeste 0 1013.4 -0.8 53
2017-08-05 14:00:00 27.6 4 Sudeste 8 Este 0 1013.9 0 54
2017-08-05 13:00:00 25.8 2 Sudeste 5 Sudeste 0 1014.3 0.8 72
2017-08-05 12:00:00 26.6 5 Sudeste 8 Este 0 1014.2 1 77
2017-08-05 11:00:00 25.3 3 Este 5 Nordeste 0 1013.9 1.2 70
2017-08-05 10:00:00 25.6 2 Sur 10 Oeste 0 1013.5 0.9 58
2017-08-05 09:00:00 24.7 6 Oeste 12 Oeste 0 1013.2 0.6 58
2017-08-05 08:00:00 23.8 5 Noroeste 10 Noroeste 0 1012.7 0.3 61
2017-08-05 07:00:00 23.4 0 Calma 6 Oeste 0 1012.6 0 64
2017-08-05 06:00:00 24 0 Calma 9 Noroeste 0 1012.6 -0.6 66
2017-08-05 05:00:00 24.4 4 Noroeste 8 Noroeste 0 1012.4 -1 64
2017-08-05 04:00:00 24.4 0 Calma 6 Noroeste 0 1012.6 -0.8 67
2017-08-05 03:00:00 24.6 3 Noroeste 8 Nordeste 0 1013.2 -0.4 67
2017-08-05 02:00:00 25 4 Nordeste 11 Oeste 0 1013.4 0.1 65
2017-08-05 01:00:00 25 7 Noroeste 12 Oeste 0 1013.4 0.8 66
2017-08-05 00:00:00 24.3 0 Calma 4 Este 0 1013.6 1.5 84
2017-08-04 23:00:00 24.7 3 Este 6 Este 0 1013.3 1.6 83
2017-08-04 22:00:00 25.2 0 Calma 11 Sudoeste 0 1012.6 0.9 81
2017-08-04 21:00:00 25.7 8 Sudoeste 14 Sudoeste 0 1012.1 0.1 75
2017-08-04 20:00:00 25.9 9 Sudoeste 16 Sudoeste 0 1011.7 -0.9 72
2017-08-04 19:00:00 25.9 5 Sudoeste 8 Sudoeste 0 1011.7 -1.4 91
2017-08-04 18:00:00 26.4 3 Sur 7 Sudeste 0 1012 -1.5 88
2017-08-04 17:00:00 26.7 3 Sudeste 9 Sudeste 0 1012.6 -1.3 86
2017-08-04 16:00:00 26.5 6 Sudeste 9 Sudeste 0 1013.1 -0.5 84
2017-08-04 15:00:00 25.9 5 Sudeste 9 Este 0 1013.5 -0.1 87
2017-08-04 14:00:00 25.6 6 Sudeste 17 Sur 0 1013.9 0.3 87
2017-08-04 13:00:00 24.4 13 Sur 19 Sur 0 1013.6 0.3 88
2017-08-04 12:00:00 24.2 12 Sur 16 Sur 0 1013.6 0.6 87
2017-08-04 11:00:00 24.1 3 Este 7 Este 0 1013.6 0.6 86
2017-08-04 10:00:00 23.2 3 Sur 11 Oeste 0 1013.3 0.3 86
2017-08-04 09:00:00 23.1 4 Oeste 9 Noroeste 0 1013 0.2 67
2017-08-04 08:00:00 22.5 5 Noroeste 11 Oeste 0 1013 0 69
2017-08-04 07:00:00 22.8 4 Norte 11 Noroeste 0 1013 0.1 69
2017-08-04 06:00:00 22.9 6 Noroeste 11 Noroeste 0 1012.8 -0.3 71
2017-08-04 05:00:00 22.6 2 Oeste 4 Norte 0 1013 -0.3 78
2017-08-04 04:00:00 22.8 3 Noroeste 10 Este 0 1012.9 -0.7 80
2017-08-04 03:00:00 23.5 4 Norte 9 Nordeste 0 1013.1 -0.5 86
2017-08-04 02:00:00 23.7 5 Nordeste 9 Norte 0 1013.3 0 80
2017-08-04 01:00:00 23.6 0 Calma 4 Sudeste 0 1013.6 0.5 87
2017-08-04 00:00:00 24.1 3 Este 6 Nordeste 0 1013.6 1 86
2017-08-03 23:00:00 24.4 4 Nordeste 7 Nordeste 0 1013.3 0.8 83
2017-08-03 22:00:00 24.4 6 Nordeste 10 Nordeste 0 1013.1 0.3 86
2017-08-03 21:00:00 25 4 Nordeste 16 Sur 0 1012.6 -0.7 83
2017-08-03 20:00:00 24.9 11 Sudoeste 18 Sudoeste 0 1012.5 -1.2 83
2017-08-03 19:00:00 25.8 6 Sudeste 12 Sur 0 1012.8 -1.6 82
2017-08-03 18:00:00 25.6 6 Sur 9 Sur 0 1013.3 -1.5 83
2017-08-03 17:00:00 25.4 5 Sudeste 9 Sur 0 1013.7 -1.7 82
2017-08-03 16:00:00 24.4 5 Sur 9 Sur 0 1014.4 -1.5 87
2017-08-03 15:00:00 25 8 Sur 10 Sur 0 1014.8 -1.3 80
2017-08-03 14:00:00 24.4 4 Este 6 Nordeste 0 1015.4 -0.4 83
2017-08-03 13:00:00 23.5 4 Sudeste 6 Sudeste 0 1015.9 0.4 89
2017-08-03 12:00:00 22.9 5 Sudeste 8 Sudeste 0 1016.1 1.5 92
2017-08-03 11:00:00 22.3 4 Sur 6 Sudeste 0 1015.8 1.3 92
2017-08-03 10:00:00 22.1 3 Sudeste 9 Sudeste 0 1015.5 0.8 93
2017-08-03 09:00:00 22.3 2 Sudeste 6 Nordeste 0 1014.6 0.3 92
2017-08-03 08:00:00 22 0 Calma 5 Nordeste 0 1014.5 0.2 89
2017-08-03 07:00:00 22.4 0 Calma 7 Oeste 0 1014.7 -0.2 87
2017-08-03 06:00:00 22.3 3 Sudoeste 9 Noroeste 0 1014.3 -1 86
2017-08-03 05:00:00 22.2 3 Oeste 6 Oeste 0 1014.3 -1.6 91
2017-08-03 04:00:00 22.2 0 Calma 4 Este 0 1014.9 -0.8 92
2017-08-03 03:00:00 21.9 2 Nordeste 12 Este 0 1015.3 -0.1 95
2017-08-03 02:00:00 21.9 13 Este 22 Sudeste 0 1015.9 0.9 95
2017-08-03 01:00:00 21.8 2 Norte 12 Nordeste 0 1015.7 2 95
2017-08-03 00:00:00 22 8 Nordeste 14 Sudoeste 0 1015.4 2.6 94
2017-08-02 23:00:00 22 11 Sudoeste 18 Sur 0 1015 2.3 92
2017-08-02 22:00:00 23.8 5 Sudoeste 17 Sudoeste 0 1013.7 0.6 78
2017-08-02 21:00:00 29.2 4 Oeste 14 Oeste 0 1012.8 -0.7 47
2017-08-02 20:00:00 29.2 5 Oeste 14 Sudoeste 0 1012.7 -1.4 50
2017-08-02 19:00:00 28.7 4 Sudoeste 19 Sudoeste 0 1013.1 -1.3 54
2017-08-02 18:00:00 26.1 12 Sudoeste 17 Sudoeste 0 1013.5 -0.9 65
2017-08-02 17:00:00 23.9 9 Sudoeste 13 Sudoeste 0 1014.1 -0.6 81
2017-08-02 16:00:00 23.7 10 Sudoeste 17 Sudoeste 0 1014.4 -0.5 78
2017-08-02 15:00:00 24.9 9 Sudoeste 16 Sudoeste 0 1014.4 -0.5 68
2017-08-02 14:00:00 23.2 10 Sudoeste 18 Sur 0 1014.7 0 78
2017-08-02 13:00:00 21.9 13 Sudoeste 20 Sur 0 1014.9 0.4 84
2017-08-02 12:00:00 21.9 7 Sudoeste 14 Sur 0 1014.9 0.7 87
2017-08-02 11:00:00 21.6 2 Sudeste 6 Sudeste 0 1014.7 1 92
2017-08-02 10:00:00 21.6 4 Nordeste 7 Nordeste 0 1014.5 1.1 94
2017-08-02 09:00:00 20.8 3 Nordeste 12 Nordeste 0 1014.2 1.2 97
2017-08-02 08:00:00 20.7 8 Nordeste 13 Nordeste 0 1013.7 0.6 97
2017-08-02 07:00:00 21.2 4 Nordeste 8 Nordeste 0 1013.4 0.1 92
2017-08-02 06:00:00 21 0 Calma 8 Sudoeste 0 1013 -0.7 84
2017-08-02 05:00:00 21.7 3 Sur 10 Sur 0 1013.1 -1.4 87
2017-08-02 04:00:00 22.4 2 Sudoeste 9 Sudeste 0 1013.3 -1.2 81
2017-08-02 03:00:00 22.7 2 Oeste 6 Noroeste 0 1013.7 -0.3 83
2017-08-02 02:00:00 23.2 3 Nordeste 20 Este 0 1014.5 0.4 81
2017-08-02 01:00:00 23.4 14 Este 30 Este 0 1014.5 1.9 79
2017-08-02 00:00:00 23.3 6 Este 24 Este 0 1014 2.4 77
2017-08-01 23:00:00 23.5 16 Este 23 Este 0 1014.1 3.2 75
2017-08-01 22:00:00 24.1 6 Sudoeste 17 Sur 0 1012.6 2.1 72
2017-08-01 21:00:00 26.1 7 Sudoeste 22 Oeste 0 1011.6 0.6 64
2017-08-01 20:00:00 29.3 11 Oeste 21 Oeste 0 1010.9 -0.2 52
2017-08-01 19:00:00 27.2 7 Sudoeste 16 Sudoeste 0 1010.5 -1 63
2017-08-01 18:00:00 28.2 6 Oeste 23 Oeste 0 1011 -0.2 60
2017-08-01 17:00:00 28.2 5 Sudoeste 22 Sudoeste 0 1011.1 -0.5 59
2017-08-01 16:00:00 27.8 4 Oeste 22 Oeste 0 1011.5 -0.2 60
2017-08-01 15:00:00 27.3 8 Oeste 24 Oeste 0 1011.2 0.3 61
2017-08-01 14:00:00 24.8 7 Sudoeste 23 Sur 0 1011.6 0.7 71
2017-08-01 13:00:00 24.6 11 Sur 22 Sudoeste 0 1011.7 1.1 70
2017-08-01 12:00:00 24.1 0 Calma 12 Sudoeste 0 1010.9 0.7 73
2017-08-01 11:00:00 22.9 4 Sudoeste 9 Sudoeste 0 1010.9 1.4 82
2017-08-01 10:00:00 22.6 3 Noroeste 12 Sudoeste 0 1010.6 1.3 71
2017-08-01 09:00:00 22 3 Sudoeste 12 Sudoeste 0 1010.2 1 83
2017-08-01 08:00:00 22 4 Sudoeste 9 Sudoeste 0 1009.5 0.4 82
2017-08-01 07:00:00 22.6 5 Sudoeste 10 Sudoeste 0 1009.3 0.2 81
2017-08-01 06:00:00 22.8 5 Sudoeste 10 Oeste 0 1009.2 0.4 81
2017-08-01 05:00:00 23.2 5 Oeste 11 Oeste 0 1009.1 -0.5 78
2017-08-01 04:00:00 22.4 2 Este 10 Sudoeste 0 1009.1 -0.1 78
2017-08-01 03:00:00 23.5 3 Oeste 11 Oeste 0 1008.8 0.1 78
2017-08-01 02:00:00 22.7 3 Sudoeste 9 Sudeste 0 1009.6 1.2 82
2017-08-01 01:00:00 23.5 0 Calma 15 Nordeste 0 1009.2 1.3 78
2017-08-01 00:00:00 24.2 11 Nordeste 19 Nordeste 0 1008.7 1.6 80
2017-07-31 23:00:00 25.3 14 Nordeste 21 Nordeste 0 1008.4 1.8 74
2017-07-31 22:00:00 29.5 4 Oeste 25 Oeste 0 1007.9 1.6 50
2017-07-31 21:00:00 24.4 2 Sudoeste 23 Sur 0 1007.1 0.4 83
2017-07-31 20:00:00 27.6 5 Sudoeste 27 Sudoeste 0 1006.6 -0.9 67
2017-07-31 19:00:00 28.6 8 Sudoeste 26 Sudoeste 0 1006.3 -1.7 62
2017-07-31 18:00:00 28.4 0 Calma 19 Sudoeste 0 1006.7 -2 65
2017-07-31 17:00:00 25.2 6 Sudeste 16 Sur 0 1007.5 -1.4 86
2017-07-31 16:00:00 24.3 10 Sur 15 Sur 0 1008 -1 84
2017-07-31 15:00:00 23.9 3 Sudeste 6 Sur 0 1008.7 -0.6 80
2017-07-31 14:00:00 23.2 4 Sur 6 Sur 0 1008.9 0 89
2017-07-31 13:00:00 23.5 5 Sudeste 8 Sudeste 0 1009 0.2 94
2017-07-31 12:00:00 23.3 5 Este 10 Este 0 1009.3 0.9 94
2017-07-31 11:00:00 22.6 7 Este 13 Este 0 1008.9 1 95
2017-07-31 10:00:00 22.6 4 Sudeste 9 Sudeste 0 1008.8 1.4 95
2017-07-31 09:00:00 21.6 0 Calma 7 Sudoeste 0 1008.4 0.9 95
2017-07-31 08:00:00 21.4 4 Sudoeste 8 Sudoeste 0 1007.9 0.1 93
2017-07-31 07:00:00 22 0 Calma 11 Oeste 0 1007.4 -1 94
2017-07-31 06:00:00 22.2 0 Calma 9 Oeste 0 1007.5 -1.4 95
2017-07-31 05:00:00 21.5 5 Oeste 9 Oeste 0 1007.8 -1.5 98
2017-07-31 04:00:00 21.9 0 Calma 8 Oeste 0 1008.4 -0.9 99
2017-07-31 03:00:00 21.9 4 Este 11 Este 0 1008.9 -0.3 99
2017-07-31 02:00:00 22 5 Este 10 Este 0 1009.3 0.5 98
2017-07-31 01:00:00 22.3 5 Este 9 Nordeste 0 1009.3 0.5 96
2017-07-31 00:00:00 22.7 0 Calma 12 Sur 0 1009.2 0.7 92
2017-07-30 23:00:00 24.1 4 Oeste 10 Oeste 0 1008.8 0.9 84
2017-07-30 22:00:00 24.5 3 Sudoeste 17 Sudoeste 0 1008.8 0.6 80
2017-07-30 21:00:00 26.9 6 Oeste 27 Oeste 0 1008.5 -0.6 59
2017-07-30 20:00:00 29.2 8 Oeste 18 Oeste 0 1007.9 -2 56
2017-07-30 19:00:00 25 14 Sudoeste 21 Sudoeste 0 1008.2 -2.5 76
2017-07-30 18:00:00 23.5 14 Sudoeste 21 Sudoeste 0 1009.1 -2 95
2017-07-30 17:00:00 23.2 15 Sur 21 Sur 0 1009.9 -1.7 97
2017-07-30 16:00:00 23.3 9 Sur 13 Sur 0 1010.7 -0.9 98
2017-07-30 15:00:00 23.9 5 Sur 8 Sur 0 1011.1 -0.8 96
2017-07-30 14:00:00 24.1 4 Sudoeste 7 Sur 0 1011.6 -0.5 97
2017-07-30 13:00:00 23.3 3 Sur 5 Sudeste 0 1011.6 -0.6 97
2017-07-30 12:00:00 22.7 2 Sudeste 7 Sudoeste 0 1011.9 -0.2 99
2017-07-30 11:00:00 22.2 2 Sudoeste 6 Este 0 1012.1 -0.1 99
2017-07-30 10:00:00 22.4 3 Este 6 Sudeste 0 1012.2 0.3 99
2017-07-30 09:00:00 21.3 5 Sudoeste 7 Sudoeste 0 1012.1 0.4 99
2017-07-30 08:00:00 22.4 4 Nordeste 5 Nordeste 0 1012.2 0.4 97
2017-07-30 07:00:00 22.4 0 Calma 9 Oeste 0 1011.9 0.2 93
2017-07-30 06:00:00 23 2 Oeste 7 Sudoeste 0 1011.7 -0.7 90
2017-07-30 05:00:00 22 4 Sudoeste 9 Sudoeste 0 1011.8 -1.3 89
2017-07-30 04:00:00 23.3 4 Noroeste 14 Oeste 0 1011.7 -1.6 84
2017-07-30 03:00:00 22.6 3 Noroeste 6 Norte 0 1012.4 -1.4 94
2017-07-30 02:00:00 22.6 0 Calma 10 Este 0 1013.1 -0.6 93
2017-07-30 01:00:00 22.8 0 Calma 3 Sudoeste 0 1013.3 0.4 89
2017-07-30 00:00:00 22.3 2 Nordeste 5 Sur 0 1013.8 1.1 98
2017-07-29 23:00:00 22.7 5 Nordeste 7 Nordeste 0 1013.7 0.9 98
2017-07-29 22:00:00 22.9 0 Calma 4 Este 0 1012.9 -0.2 97
2017-07-29 21:00:00 23.1 2 Sudeste 6 Sudeste 0 1012.7 -0.7 98
2017-07-29 20:00:00 22.9 3 Sudeste 6 Sudeste 0 1012.8 -1.2 98
2017-07-29 19:00:00 23.5 3 Sudeste 9 Sudeste 0 1013.1 -1.3 99
2017-07-29 18:00:00 23.5 5 Sudeste 10 Este 0 1013.4 -1.5 99
2017-07-29 17:00:00 23 5 Sur 10 Sur 0 1014 -1.2 99
2017-07-29 16:00:00 23.3 6 Sur 11 Sur 0 1014.4 -1 99
2017-07-29 15:00:00 23.4 5 Sur 9 Sur 0 1014.9 -0.1 99
2017-07-29 14:00:00 23.1 5 Sur 8 Sur 0 1015.2 0.3 98
2017-07-29 13:00:00 22.9 5 Sudoeste 10 Sudoeste 0 1015.4 0.3 99
2017-07-29 12:00:00 22.7 4 Sudeste 8 Nordeste 0 1015 0.1 99
2017-07-29 11:00:00 22.1 4 Este 7 Este 0 1014.9 0.4 99
2017-07-29 10:00:00 22.1 4 Este 8 Nordeste 0 1015.1 1.2 99
2017-07-29 09:00:00 22.5 4 Nordeste 8 Este 0 1014.9 1.2 99
2017-07-29 08:00:00 22.5 3 Nordeste 6 Nordeste 0 1014.5 1.1 97
2017-07-29 07:00:00 21.8 0 Calma 7 Norte 0 1013.9 0.5 95
2017-07-29 06:00:00 21.7 4 Nordeste 8 Este 0 1013.7 -0.1 95
2017-07-29 05:00:00 21.9 4 Nordeste 8 Nordeste 0 1013.4 -0.6 97
2017-07-29 04:00:00 22.4 5 Nordeste 7 Norte 0 1013.4 -0.8 97
2017-07-29 03:00:00 22.5 0 Calma 5 Sur 0 1013.8 -0.1 95
2017-07-29 02:00:00 23.3 0 Calma 14 Sudoeste 0 1014 0.3 95
2017-07-29 01:00:00 22.7 3 Sudoeste 10 Sudoeste 0 1014.2 1.1 96
2017-07-29 00:00:00 22.6 2 Este 5 Nordeste 0 1013.9 1.3 97
2017-07-28 23:00:00 22.9 3 Nordeste 6 Nordeste 0 1013.7 1.4 98
2017-07-28 22:00:00 23 3 Nordeste 6 Nordeste 0 1013.1 0.9 97
2017-07-28 21:00:00 23.4 3 Nordeste 9 Nordeste 0 1012.6 0.1 94
2017-07-28 20:00:00 24.4 7 Este 16 Este 0 1012.3 -0.3 92
2017-07-28 19:00:00 25.1 9 Este 13 Este 0 1012.2 -0.8 90
2017-07-28 18:00:00 25.3 9 Este 12 Este 0 1012.5 -0.8 92
2017-07-28 17:00:00 24.2 5 Sudeste 16 Sur 0 1012.6 -0.9 94
2017-07-28 16:00:00 23.2 9 Sur 18 Sur 0 1013 -0.5 96
2017-07-28 15:00:00 22.7 15 Sur 25 Sur 0 1013.3 -0.3 97
2017-07-28 14:00:00 22.4 18 Sudoeste 29 Sudoeste 0 1013.5 0 95
2017-07-28 13:00:00 22.1 17 Sudoeste 29 Sur 0 1013.5 -0.3 89
2017-07-28 12:00:00 21.2 15 Sudoeste 22 Sudoeste 0 1013.6 0.3 97
2017-07-28 11:00:00 21.5 14 Sudoeste 18 Sur 0 1013.5 0.3 97
2017-07-28 10:00:00 21.3 9 Sudoeste 15 Sudoeste 0 1013.8 0.6 98
2017-07-28 09:00:00 20.8 2 Sur 6 Sur 0 1013.3 0.3 93
2017-07-28 08:00:00 21.1 3 Sur 6 Nordeste 0 1013.2 0.1 92
2017-07-28 07:00:00 21.4 4 Nordeste 8 Sudoeste 0 1013.2 0.1 90
2017-07-28 06:00:00 21.4 3 Sudoeste 6 Sudoeste 0 1013 -0.5 91
2017-07-28 05:00:00 21 2 Oeste 11 Sur 0 1013.1 -0.6 98
2017-07-28 04:00:00 21.9 3 Sudoeste 6 Sur 0 1013.1 -0.1 98
2017-07-28 03:00:00 22 3 Nordeste 7 Nordeste 0 1013.5 -0.3 97
2017-07-28 02:00:00 22.2 5 Nordeste 8 Nordeste 0 1013.7 0.8 95
2017-07-28 01:00:00 23 3 Sudoeste 10 Oeste 0 1013.2 0.7 92
2017-07-28 00:00:00 22.1 4 Sudoeste 9 Sur 0 1013.8 1.7 95
2017-07-27 23:00:00 22.9 2 Nordeste 8 Nordeste 0 1012.9 0.8 94
2017-07-27 22:00:00 23 2 Nordeste 12 Sudoeste 0 1012.5 0.3 94
2017-07-27 21:00:00 23.3 7 Sudoeste 15 Sudoeste 0 1012.1 -0.7 91
2017-07-27 20:00:00 23.5 11 Sudoeste 15 Sur 0 1012.1 -1.1 90
2017-07-27 19:00:00 23.6 10 Sudoeste 15 Sur 0 1012.2 -1.7 90
2017-07-27 18:00:00 23.3 11 Sudoeste 18 Sudoeste 0 1012.8 -1.5 96
2017-07-27 17:00:00 23.4 12 Sudoeste 18 Sur 0 1013.2 -1.7 96
2017-07-27 16:00:00 23.3 12 Sudoeste 17 Sur 0 1013.9 -1.1 98
2017-07-27 15:00:00 23.2 11 Sudoeste 14 Sur 0 1014.3 -0.8 99
2017-07-27 14:00:00 22.6 8 Sudoeste 15 Sur 0 1014.9 -0.3 99
2017-07-27 13:00:00 21.9 14 Sudoeste 19 Sur 0 1015 -0.2 99
2017-07-27 12:00:00 21.3 12 Sudoeste 18 Sur 0 1015.1 0.3 99
2017-07-27 11:00:00 21.1 13 Sudoeste 18 Sur 0 1015.2 1 99
2017-07-27 10:00:00 21 12 Sudoeste 20 Sur 0 1015.2 1.4 99
2017-07-27 09:00:00 22.2 9 Sudoeste 14 Sudoeste 0 1014.8 1.4 96
2017-07-27 08:00:00 22 2 Sudoeste 15 Oeste 0 1014.2 0.7 93
2017-07-27 07:00:00 23.2 7 Oeste 13 Oeste 0 1013.8 0.1 89
2017-07-27 06:00:00 22.3 0 Calma 4 Noroeste 0 1013.4 -0.7 96
2017-07-27 05:00:00 22.3 2 Sudoeste 5 Nordeste 0 1013.5 -0.6 98
2017-07-27 04:00:00 22.6 3 Norte 9 Este 0 1013.7 -0.6 97
2017-07-27 03:00:00 23.6 5 Nordeste 8 Nordeste 0 1014.1 0.1 94
2017-07-27 02:00:00 23.4 2 Oeste 5 Oeste 0 1014.1 0.4 97
2017-07-27 01:00:00 23.3 2 Sudoeste 8 Sudoeste 0 1014.3 1.5 98
2017-07-27 00:00:00 23.4 4 Sudoeste 8 Sudoeste 0 1014 1.8 97
2017-07-26 23:00:00 23.6 5 Sudoeste 13 Sudoeste 0 1013.7 1.7 97
2017-07-26 22:00:00 23.3 5 Sudoeste 16 Sudoeste 0 1012.8 0.8 98
2017-07-26 21:00:00 24.8 5 Sudoeste 14 Sudoeste 0 1012.2 -0.1 91
2017-07-26 20:00:00 24.2 9 Sudoeste 17 Sudoeste 0 1012 -1 96
2017-07-26 19:00:00 24 10 Sudoeste 14 Sudoeste 0 1012 -1.5 96
2017-07-26 18:00:00 24.1 6 Sudoeste 14 Sudoeste 0 1012.3 -1.7 96
2017-07-26 17:00:00 23.8 12 Sudoeste 17 Sur 0 1013 -1.4 96
2017-07-26 16:00:00 24.1 10 Sur 13 Sudoeste 0 1013.5 -1.1 94
2017-07-26 15:00:00 25 3 Sur 7 Sudoeste 0 1014 -0.6 94
2017-07-26 14:00:00 24.4 5 Sudoeste 8 Sur 0 1014.4 0.1 94
2017-07-26 13:00:00 24.2 3 Sudoeste 8 Sudeste 0 1014.6 0.3 93
2017-07-26 12:00:00 25.2 5 Este 8 Sudeste 0 1014.6 0.6 92
2017-07-26 11:00:00 24.5 4 Este 7 Este 0 1014.3 0.8 95
2017-07-26 10:00:00 24 2 Este 4 Sudeste 0 1014.3 1.3 95
2017-07-26 09:00:00 23.4 0 Calma 8 Oeste 0 1014 1.3 94
2017-07-26 08:00:00 23.2 4 Noroeste 9 Noroeste 0 1013.5 0.7 97
2017-07-26 07:00:00 22.4 0 Calma 5 Sudeste 0 1013 -0.1 98
2017-07-26 06:00:00 22.5 0 Calma 5 Norte 0 1012.7 -0.5 99
2017-07-26 05:00:00 22.7 4 Nordeste 14 Este 0 1012.8 -0.4 99
2017-07-26 04:00:00 22.6 9 Nordeste 15 Nordeste 0 1013.1 -0.2 99
2017-07-26 03:00:00 22.7 7 Este 12 Este 0 1013.2 0.5 99
2017-07-26 02:00:00 22.7 4 Nordeste 7 Nordeste 0 1013.2 1 99
2017-07-26 01:00:00 22.9 3 Nordeste 6 Nordeste 0 1013.3 1.8 98
2017-07-26 00:00:00 23.6 3 Este 5 Nordeste 0 1012.7 1.5 96
2017-07-25 23:00:00 24.1 3 Nordeste 6 Nordeste 0 1012.2 1.3 94
2017-07-25 22:00:00 24.2 4 Nordeste 6 Nordeste 0 1011.5 0.3 94
2017-07-25 21:00:00 24.5 5 Nordeste 9 Nordeste 0 1011.2 -0.6 92
2017-07-25 20:00:00 25.6 6 Este 9 Nordeste 0 1010.9 -1.2 89
2017-07-25 19:00:00 26.5 6 Este 10 Este 0 1011.2 -1.4 87
2017-07-25 18:00:00 26.5 6 Este 10 Este 0 1011.8 -1.4 87
2017-07-25 17:00:00 26.6 7 Este 12 Nordeste 0 1012.1 -1.7 89
2017-07-25 16:00:00 25.5 9 Nordeste 14 Este 0 1012.6 -1.5 90
2017-07-25 15:00:00 25.8 9 Este 14 Este 0 1013.2 -1 91
2017-07-25 14:00:00 25.2 9 Este 16 Este 0 1013.8 0.1 92
2017-07-25 13:00:00 24.6 11 Este 21 Este 0 1014.1 0.8 94
2017-07-25 12:00:00 23.7 14 Este 23 Este 0 1014.2 1.3 95
2017-07-25 11:00:00 23.2 14 Este 23 Este 0 1013.7 1.3 94
2017-07-25 10:00:00 22.8 13 Este 20 Este 0 1013.3 1.5 93
2017-07-25 09:00:00 22 8 Este 13 Este 0 1012.9 1.3 94
2017-07-25 08:00:00 20.9 3 Sudeste 8 Sur 0 1012.4 0.7 94
2017-07-25 07:00:00 21.5 0 Calma 9 Noroeste 0 1011.8 -0.5 93
2017-07-25 06:00:00 21.1 3 Norte 18 Este 0 1011.6 -1.1 98
2017-07-25 05:00:00 21.2 8 Este 14 Sudeste 0 1011.7 -1.2 97
2017-07-25 04:00:00 21.5 12 Este 22 Este 0 1012.3 -0.7 97
2017-07-25 03:00:00 21.7 11 Este 27 Este 0 1012.7 -0.1 92
2017-07-25 02:00:00 22.1 17 Este 28 Este 0 1012.9 0.3 92
2017-07-25 01:00:00 22 9 Este 17 Este 0 1013 1.1 92
2017-07-25 00:00:00 22.1 5 Nordeste 10 Norte 0 1012.8 1.2 92
2017-07-24 23:00:00 22.1 3 Este 14 Nordeste 0 1012.6 1 90
2017-07-24 22:00:00 22.7 9 Nordeste 19 Sudoeste 0 1011.9 0 89
2017-07-24 21:00:00 23.3 2 Sur 21 Sudoeste 0 1011.6 -0.7 85
2017-07-24 20:00:00 24.3 14 Sudoeste 21 Sudoeste 0 1011.6 -1.4 77
2017-07-24 19:00:00 27.6 6 Sudoeste 19 Sudoeste 0 1011.9 -2 63
2017-07-24 18:00:00 24.9 8 Nordeste 15 Nordeste 0 1012.3 -2.2 83
2017-07-24 17:00:00 24.2 4 Sudeste 7 Sudeste 0 1013 -1.8 87
2017-07-24 16:00:00 23.4 3 Sudeste 9 Este 0 1013.9 -1.3 92
2017-07-24 15:00:00 23 6 Este 10 Nordeste 0 1014.5 -1 93
2017-07-24 14:00:00 22.7 5 Este 10 Sudeste 0 1014.8 -0.5 94
2017-07-24 13:00:00 22.2 4 Sudeste 10 Este 0 1015.2 -0.4 95
2017-07-24 12:00:00 21.6 3 Sudeste 8 Sudeste 0 1015.5 0.6 95
2017-07-24 11:00:00 21.2 4 Este 9 Sudeste 0 1015.3 0.2 96
2017-07-24 10:00:00 20.3 9 Sudeste 13 Sudeste 0 1015.6 0.9 96
2017-07-24 09:00:00 20.1 4 Sudeste 6 Sur 0 1014.9 0.2 95
2017-07-24 08:00:00 20.4 3 Nordeste 5 Nordeste 0 1015.1 0.5 94
2017-07-24 07:00:00 20.3 0 Calma 5 Nordeste 0 1014.7 -0.2 96
2017-07-24 06:00:00 20.4 0 Calma 5 Sur 0 1014.7 -0.5 96
2017-07-24 05:00:00 20.4 2 Sudoeste 10 Sudoeste 0 1014.6 -1.1 96
2017-07-24 04:00:00 20.4 4 Sudoeste 10 Sudoeste 0 1014.9 -1.4 95
2017-07-24 03:00:00 20.7 2 Sudoeste 8 Sur 0 1015.2 -0.9 95
2017-07-24 02:00:00 21 0 Calma 8 Nordeste 0 1015.7 0.2 97
2017-07-24 01:00:00 20.8 7 Sudeste 10 Este 0 1016.3 1.8 95
2017-07-24 00:00:00 21.1 4 Nordeste 9 Nordeste 0 1016.1 1.9 95
2017-07-23 23:00:00 21.3 7 Nordeste 13 Sudeste 0 1015.5 1.7 93
2017-07-23 22:00:00 21.8 7 Nordeste 20 Sur 0 1014.5 0.6 92
2017-07-23 21:00:00 22 13 Sudoeste 24 Sur 0 1014.2 -0.2 88
2017-07-23 20:00:00 28.6 6 Sudoeste 19 Sudoeste 0 1013.8 -1.1 52
2017-07-23 19:00:00 26.2 9 Sudoeste 19 Sur 0 1013.9 -1.9 61
2017-07-23 18:00:00 22.4 13 Sur 21 Sur 0 1014.4 -2 89
2017-07-23 17:00:00 23.2 4 Sur 10 Sur 0 1014.9 -2 89
2017-07-23 16:00:00 22.4 4 Sur 9 Sur 0 1015.8 -1.1 90
2017-07-23 15:00:00 22.9 5 Sudeste 13 Este 0 1016.4 0 86
2017-07-23 14:00:00 22.6 6 Sudeste 12 Este 0 1016.9 1.2 86
2017-07-23 13:00:00 21.8 8 Sudeste 12 Sudeste 0 1016.9 1.8 88
2017-07-23 12:00:00 20.4 4 Sudeste 11 Sudoeste 0 1016.4 1.3 92
2017-07-23 11:00:00 19.9 7 Sur 11 Sur 0 1015.7 1.2 94
2017-07-23 10:00:00 19.6 5 Sudoeste 12 Sudoeste 0 1015.1 0.6 96
2017-07-23 09:00:00 19.6 4 Sudoeste 10 Sudoeste 0 1015.1 0.9 94
2017-07-23 08:00:00 20.1 0 Calma 8 Nordeste 0 1014.5 0.4 93
2017-07-23 07:00:00 19.8 0 Calma 9 Sudoeste 0 1014.5 0.2 93
2017-07-23 06:00:00 20.9 4 Oeste 10 Oeste 0 1014.2 -0.4 86
2017-07-23 05:00:00 21.1 0 Calma 9 Oeste 0 1014.1 -0.7 91
2017-07-23 04:00:00 20.6 0 Calma 5 Noroeste 0 1014.3 -0.9 95
2017-07-23 03:00:00 20.4 3 Este 14 Este 0 1014.6 -0.2 96
2017-07-23 02:00:00 20.3 10 Este 16 Este 0 1014.8 1.3 98
2017-07-23 01:00:00 20.1 8 Este 19 Este 0 1015.2 3 98
2017-07-23 00:00:00 20.1 12 Nordeste 17 Nordeste 0 1014.8 3.3 96
2017-07-22 23:00:00 20 8 Sudoeste 26 Sur 0 1013.5 2.2 95
2017-07-22 22:00:00 22.7 3 Sudoeste 18 Oeste 0 1012.2 0.8 81
2017-07-22 21:00:00 28.2 6 Oeste 20 Oeste 0 1011.5 -0.2 53
2017-07-22 20:00:00 27.3 7 Oeste 16 Oeste 0 1011.3 -1 61
2017-07-22 19:00:00 25.2 7 Sudoeste 19 Sudoeste 0 1011.4 -1.2 67
2017-07-22 18:00:00 20.8 12 Sudoeste 17 Sur 0 1011.7 -1.2 94
2017-07-22 17:00:00 21.9 3 Sudeste 12 Sudoeste 0 1012.3 -1 92
2017-07-22 16:00:00 21.1 5 Sur 13 Sur 0 1012.6 -0.7 93
2017-07-22 15:00:00 21.4 5 Sudoeste 8 Sudoeste 0 1012.9 -0.4 89
2017-07-22 14:00:00 22.4 3 Sur 5 Sur 0 1013.3 0.5 82
2017-07-22 13:00:00 22 0 Calma 7 Sudeste 0 1013.3 1 81
2017-07-22 12:00:00 21 3 Sudeste 8 Nordeste 0 1013.3 1.6 86
2017-07-22 11:00:00 20.5 5 Nordeste 9 Nordeste 0 1012.8 1.6 87
2017-07-22 10:00:00 20 6 Nordeste 8 Nordeste 0 1012.3 1.6 89
2017-07-22 09:00:00 18.6 2 Sur 10 Sudoeste 0 1011.7 1.2 92
2017-07-22 08:00:00 19.4 0 Calma 8 Nordeste 0 1011.2 1.2 89
2017-07-22 07:00:00 19 4 Nordeste 8 Nordeste 0 1010.7 0.6 90
2017-07-22 06:00:00 19.3 4 Este 6 Nordeste 0 1010.5 0.3 87
2017-07-22 05:00:00 19.8 3 Nordeste 9 Este 0 1010 -0.6 85
2017-07-22 04:00:00 19.9 5 Nordeste 9 Este 0 1010.1 -0.8 83
2017-07-22 03:00:00 20.2 3 Sudoeste 11 Sudoeste 0 1010.2 -0.3 78
2017-07-22 02:00:00 21 4 Sudoeste 12 Oeste 0 1010.6 0.6 74
2017-07-22 01:00:00 21.3 0 Calma 9 Sudoeste 0 1010.9 1.8 75
2017-07-22 00:00:00 20.9 3 Sudoeste 13 Sudoeste 0 1010.5 1.6 76
2017-07-21 23:00:00 23 9 Sur 16 Sudoeste 0 1010 1.2 63
2017-07-21 22:00:00 26.1 3 Oeste 19 Oeste 0 1009.1 0.3 56
2017-07-21 21:00:00 27.3 8 Oeste 30 Oeste 0 1008.9 -0.3 54
2017-07-21 20:00:00 28.2 10 Oeste 36 Oeste 0 1008.8 -0.8 53
2017-07-21 19:00:00 28.5 9 Oeste 30 Sudoeste 0 1008.8 -1.2 53
2017-07-21 18:00:00 28.7 8 Oeste 35 Oeste 0 1009.2 -1.4 54
2017-07-21 17:00:00 28.2 7 Oeste 36 Oeste 0 1009.6 -1 56
2017-07-21 16:00:00 27.4 8 Oeste 36 Oeste 0 1010 -0.8 60
2017-07-21 15:00:00 26.5 9 Oeste 35 Oeste 0 1010.6 -0.2 63
2017-07-21 14:00:00 26.2 9 Oeste 30 Sudoeste 0 1010.6 0.1 64
2017-07-21 13:00:00 25 8 Sudoeste 28 Sudoeste 0 1010.8 0.4 67
2017-07-21 12:00:00 24 7 Oeste 21 Oeste 0 1010.8 0.9 70
2017-07-21 11:00:00 22.5 5 Sudoeste 22 Sudoeste 0 1010.5 1.2 78
2017-07-21 10:00:00 21.4 4 Sudoeste 19 Sudoeste 0 1010.4 1.2 80
2017-07-21 09:00:00 21.4 5 Sudoeste 14 Sudoeste 0 1009.9 1.1 78
2017-07-21 08:00:00 21.4 3 Oeste 12 Oeste 0 1009.3 0.4 73
2017-07-21 07:00:00 21.4 2 Oeste 13 Sudoeste 0 1009.2 0.2 75
2017-07-21 06:00:00 21.4 2 Sudoeste 13 Oeste 0 1008.8 -0.6 75
2017-07-21 05:00:00 20.9 3 Oeste 12 Sudoeste 0 1008.9 -0.7 78
2017-07-21 04:00:00 21.1 2 Sudoeste 18 Oeste 0 1009 -0.5 78
2017-07-21 03:00:00 21.1 5 Oeste 24 Oeste 0 1009.4 0.1 78
2017-07-21 02:00:00 21.1 9 Oeste 29 Oeste 0 1009.6 0.6 79
2017-07-21 01:00:00 21.6 7 Oeste 27 Oeste 0 1009.5 0.9 76
2017-07-21 00:00:00 22.5 6 Oeste 32 Oeste 0 1009.3 0.9 70
2017-07-20 23:00:00 24 6 Oeste 36 Oeste 0 1009 0.7 62
2017-07-20 22:00:00 24.9 11 Oeste 35 Oeste 0 1008.6 0 60
2017-07-20 21:00:00 26.8 10 Oeste 29 Sudoeste 0 1008.4 -0.6 53
2017-07-20 20:00:00 28.4 8 Oeste 37 Oeste 0 1008.3 -1.4 51
2017-07-20 19:00:00 28.6 9 Oeste 38 Oeste 0 1008.6 -1.6 55
2017-07-20 18:00:00 27.9 7 Oeste 31 Oeste 0 1009 -1.6 62
2017-07-20 17:00:00 26.8 9 Sudoeste 37 Oeste 0 1009.7 -1.7 66
2017-07-20 16:00:00 26.4 10 Sudoeste 32 Oeste 0 1010.2 -1.6 67
2017-07-20 15:00:00 27.1 8 Oeste 33 Oeste 0 1010.6 -1.2 67
2017-07-20 14:00:00 26.1 12 Oeste 38 Oeste 0 1011.4 -0.3 70
2017-07-20 13:00:00 26 10 Oeste 39 Oeste 0 1011.8 0 73
2017-07-20 12:00:00 23.9 8 Oeste 30 Sudoeste 0 1011.8 0.1 80
2017-07-20 11:00:00 25 8 Sudoeste 23 Sur 0 1011.7 0.6 73
2017-07-20 10:00:00 25.8 6 Sudoeste 21 Sudoeste 0 1011.8 1.2 67
2017-07-20 09:00:00 25 2 Sur 12 Sur 0 1011.7 1.3 67
2017-07-20 08:00:00 24.1 6 Sudoeste 19 Sudoeste 0 1011.1 0.9 74
2017-07-20 07:00:00 23.2 12 Sudoeste 18 Sudoeste 0 1010.6 0 78
2017-07-20 06:00:00 24.2 5 Sudeste 15 Oeste 0 1010.4 -0.6 70
2017-07-20 05:00:00 21.9 3 Sur 12 Sur 0 1010.2 -1 82
2017-07-20 04:00:00 22.2 8 Sudoeste 17 Sur 0 1010.6 -0.9 86
2017-07-20 03:00:00 22.8 4 Sudoeste 10 Sur 0 1011 -0.2 82
2017-07-20 02:00:00 23.4 0 Calma 17 Sudoeste 0 1011.2 0.3 79
2017-07-20 01:00:00 25 2 Oeste 19 Oeste 0 1011.5 1.1 70
2017-07-20 00:00:00 25.7 5 Oeste 18 Oeste 0 1011.2 1.1 67
2017-07-19 23:00:00 26.8 6 Oeste 20 Oeste 0 1010.9 0.9 62
2017-07-19 22:00:00 27.2 8 Sudoeste 26 Sudoeste 0 1010.4 0 63
2017-07-19 21:00:00 27.9 7 Sudoeste 21 Sudoeste 0 1010.1 -0.7 64
2017-07-19 20:00:00 28.6 6 Sudoeste 20 Sudoeste 0 1010 -1.2 64
2017-07-19 19:00:00 27.6 13 Sudoeste 58 Sudoeste 0 1010.4 -1.6 66
2017-07-19 18:00:00 29.6 5 Sudoeste 23 Sudoeste 0 1010.8 -1.7 58
2017-07-19 17:00:00 28.4 8 Sudoeste 28 Sudoeste 0 1011.2 -1.7 65
2017-07-19 16:00:00 23.8 17 Sudoeste 25 Sur 0 1012 -1.4 89
2017-07-19 15:00:00 25.5 13 Sudoeste 22 Sudoeste 0 1012.5 -1.1 80
2017-07-19 14:00:00 25.9 10 Sudoeste 19 Sudoeste 0 1012.9 -0.5 78
2017-07-19 13:00:00 25.6 12 Sudoeste 36 Sudoeste 0 1013.4 0.1 80
2017-07-19 12:00:00 24.8 8 Sudoeste 18 Sudoeste 0 1013.6 0.5 86
2017-07-19 11:00:00 24 10 Sudoeste 20 Sudoeste 0 1013.4 0.6 92
2017-07-19 10:00:00 23.8 8 Sur 15 Sur 0 1013.3 0.8 92
2017-07-19 09:00:00 23.6 5 Sudoeste 11 Sur 0 1013.1 1.1 91
2017-07-19 08:00:00 24 3 Oeste 14 Oeste 0 1012.8 0.8 89
2017-07-19 07:00:00 24.1 2 Oeste 12 Oeste 0 1012.5 0.3 89
2017-07-19 06:00:00 24.3 5 Oeste 15 Oeste 0 1012 -0.7 84
2017-07-19 05:00:00 24.5 5 Oeste 9 Oeste 0 1012 -0.9 84
2017-07-19 04:00:00 24.7 2 Oeste 7 Sudoeste 0 1012.2 -1.3 86
2017-07-19 03:00:00 24.3 3 Oeste 7 Oeste 0 1012.7 -1.1 89
2017-07-19 02:00:00 24.4 4 Nordeste 14 Este 0 1012.9 -0.4 90
2017-07-19 01:00:00 24.7 6 Nordeste 12 Este 0 1013.5 1 87
2017-07-19 00:00:00 25 5 Este 12 Este 0 1013.8 1.7 83